GRL272 EKAH-UMMS
Flight info
| Callsign | GRL272 |
|---|---|
| Flight time | 1h 30m |
| Altitude | 37000 |
| Route | GODOG DCT ETPIG DCT GISON/K0883F370 M990 BALIT DCT KRAKI/N0473F370 DCT BADUS L748 TIWOK TIWOK2E |
| Aircraft | B77W/H-SDE1E2E3FGHIJ2J3J4J5M1RWXY/LB1D1 |
Departure
| Time | 2026-05-07 10:36 |
|---|---|
| Airport | Aarhus Airport (EKAH) |
Arrival
| Time | 2026-05-07 12:06 |
|---|---|
| Airport | Minsk National Airport (UMMS) |
| Time | Latitude | Longitude | Altitude | Speed | Heading |
|---|---|---|---|---|---|
| 2026-05-07 10:09 | 56.30687 | 10.62793 | 93 ft | 0 kts | 10° |
| 2026-05-07 10:22 | 56.30686 | 10.62793 | 93 ft | 0 kts | 10° |
| 2026-05-07 10:23 | 56.30681 | 10.62791 | 93 ft | 3 kts | 10° |
| 2026-05-07 10:23 | 56.30679 | 10.62791 | 93 ft | 0 kts | 10° |
| 2026-05-07 10:23 | 56.30665 | 10.62786 | 93 ft | 3 kts | 10° |
| 2026-05-07 10:23 | 56.30647 | 10.62780 | 92 ft | 3 kts | 10° |
| 2026-05-07 10:24 | 56.30638 | 10.62777 | 91 ft | 0 kts | 10° |
| 2026-05-07 10:27 | 56.30649 | 10.62790 | 92 ft | 3 kts | 49° |
| 2026-05-07 10:27 | 56.30646 | 10.62835 | 95 ft | 6 kts | 101° |
| 2026-05-07 10:27 | 56.30630 | 10.62948 | 96 ft | 12 kts | 113° |
| 2026-05-07 10:28 | 56.30542 | 10.62997 | 93 ft | 17 kts | 189° |
| 2026-05-07 10:28 | 56.30521 | 10.62991 | 95 ft | 0 kts | 190° |
| 2026-05-07 10:31 | 56.30490 | 10.62981 | 95 ft | 13 kts | 190° |
| 2026-05-07 10:31 | 56.30330 | 10.62930 | 96 ft | 30 kts | 190° |
| 2026-05-07 10:31 | 56.30236 | 10.62938 | 96 ft | 9 kts | 130° |
| 2026-05-07 10:32 | 56.30216 | 10.63088 | 95 ft | 15 kts | 99° |
| 2026-05-07 10:32 | 56.30194 | 10.63310 | 93 ft | 21 kts | 101° |
| 2026-05-07 10:32 | 56.30163 | 10.63603 | 93 ft | 26 kts | 101° |
| 2026-05-07 10:32 | 56.30117 | 10.63903 | 98 ft | 15 kts | 126° |
| 2026-05-07 10:33 | 56.30106 | 10.63965 | 98 ft | 1 kts | 67° |
| 2026-05-07 10:33 | 56.30120 | 10.63972 | 99 ft | 3 kts | 0° |
| 2026-05-07 10:33 | 56.30129 | 10.63939 | 97 ft | 4 kts | 271° |
| 2026-05-07 10:33 | 56.30137 | 10.63843 | 95 ft | 11 kts | 283° |
| 2026-05-07 10:34 | 56.30142 | 10.63796 | 96 ft | 0 kts | 281° |
| 2026-05-07 10:35 | 56.30150 | 10.63726 | 95 ft | 36 kts | 281° |
| 2026-05-07 10:35 | 56.30258 | 10.62612 | 98 ft | 141 kts | 280° |
| 2026-05-07 10:36 | 56.30491 | 10.60449 | 482 ft | 190 kts | 281° |
| 2026-05-07 10:36 | 56.30753 | 10.58025 | 1478 ft | 205 kts | 281° |
| 2026-05-07 10:36 | 56.31044 | 10.55384 | 2389 ft | 218 kts | 285° |
| 2026-05-07 10:36 | 56.31697 | 10.53013 | 3611 ft | 216 kts | 314° |
| 2026-05-07 10:37 | 56.33049 | 10.51739 | 4504 ft | 230 kts | 354° |
| 2026-05-07 10:37 | 56.34610 | 10.52426 | 5360 ft | 246 kts | 33° |
| 2026-05-07 10:37 | 56.35731 | 10.54664 | 6688 ft | 232 kts | 62° |
| 2026-05-07 10:37 | 56.36143 | 10.57337 | 7982 ft | 218 kts | 89° |
| 2026-05-07 10:38 | 56.36074 | 10.60070 | 8688 ft | 220 kts | 87° |
| 2026-05-07 10:38 | 56.36466 | 10.62798 | 9037 ft | 236 kts | 66° |
| 2026-05-07 10:38 | 56.36814 | 10.65840 | 9244 ft | 264 kts | 94° |
| 2026-05-07 10:38 | 56.36558 | 10.69239 | 9799 ft | 281 kts | 98° |
| 2026-05-07 10:39 | 56.36283 | 10.72792 | 10615 ft | 291 kts | 97° |
| 2026-05-07 10:39 | 56.36040 | 10.76444 | 11372 ft | 302 kts | 96° |
| 2026-05-07 10:39 | 56.35813 | 10.80369 | 11854 ft | 327 kts | 95° |
| 2026-05-07 10:39 | 56.35594 | 10.84651 | 12098 ft | 358 kts | 95° |
| 2026-05-07 10:40 | 56.35384 | 10.89229 | 12595 ft | 379 kts | 94° |
| 2026-05-07 10:40 | 56.35179 | 10.94057 | 13452 ft | 390 kts | 94° |
| 2026-05-07 10:40 | 56.34980 | 10.98999 | 14373 ft | 397 kts | 94° |
| 2026-05-07 10:40 | 56.34787 | 11.03957 | 15287 ft | 403 kts | 94° |
| 2026-05-07 10:41 | 56.34592 | 11.09051 | 16202 ft | 409 kts | 94° |
| 2026-05-07 10:41 | 56.34394 | 11.14238 | 17092 ft | 416 kts | 94° |
| 2026-05-07 10:41 | 56.34192 | 11.19484 | 17953 ft | 424 kts | 94° |
| 2026-05-07 10:41 | 56.33984 | 11.24845 | 18774 ft | 431 kts | 94° |
| 2026-05-07 10:42 | 56.33773 | 11.30237 | 19545 ft | 436 kts | 94° |
| 2026-05-07 10:42 | 56.33555 | 11.35733 | 20352 ft | 441 kts | 94° |
| 2026-05-07 10:42 | 56.33334 | 11.41242 | 21129 ft | 446 kts | 94° |
| 2026-05-07 10:42 | 56.33104 | 11.46898 | 21893 ft | 451 kts | 94° |
| 2026-05-07 10:43 | 56.32871 | 11.52568 | 22632 ft | 457 kts | 95° |
| 2026-05-07 10:43 | 56.32635 | 11.58245 | 23342 ft | 462 kts | 95° |
| 2026-05-07 10:43 | 56.32391 | 11.64060 | 23997 ft | 467 kts | 95° |
| 2026-05-07 10:43 | 56.32150 | 11.69736 | 24614 ft | 470 kts | 94° |
| 2026-05-07 10:44 | 56.31899 | 11.75573 | 25262 ft | 473 kts | 94° |
| 2026-05-07 10:44 | 56.31640 | 11.81528 | 25897 ft | 476 kts | 94° |
| 2026-05-07 10:44 | 56.31378 | 11.87505 | 26500 ft | 479 kts | 94° |
| 2026-05-07 10:44 | 56.31114 | 11.93455 | 27062 ft | 483 kts | 94° |
| 2026-05-07 10:45 | 56.30842 | 11.99518 | 27619 ft | 486 kts | 94° |
| 2026-05-07 10:45 | 56.30565 | 12.05622 | 28159 ft | 490 kts | 94° |
| 2026-05-07 10:45 | 56.30283 | 12.11758 | 28677 ft | 493 kts | 94° |
| 2026-05-07 10:45 | 56.29999 | 12.17888 | 29158 ft | 496 kts | 94° |
| 2026-05-07 10:46 | 56.29708 | 12.24096 | 29620 ft | 499 kts | 94° |
| 2026-05-07 10:46 | 56.29409 | 12.30386 | 30078 ft | 501 kts | 94° |
| 2026-05-07 10:46 | 56.29113 | 12.36564 | 30573 ft | 500 kts | 94° |
| 2026-05-07 10:46 | 56.28811 | 12.42782 | 31114 ft | 498 kts | 94° |
| 2026-05-07 10:47 | 56.28506 | 12.49020 | 31633 ft | 496 kts | 94° |
| 2026-05-07 10:47 | 56.28203 | 12.55132 | 32135 ft | 495 kts | 94° |
| 2026-05-07 10:47 | 56.27894 | 12.61329 | 32576 ft | 495 kts | 94° |
| 2026-05-07 10:47 | 56.27582 | 12.67507 | 33027 ft | 495 kts | 95° |
| 2026-05-07 10:48 | 56.27267 | 12.73694 | 33482 ft | 494 kts | 95° |
| 2026-05-07 10:48 | 56.26953 | 12.79785 | 33928 ft | 494 kts | 95° |
| 2026-05-07 10:48 | 56.26630 | 12.85996 | 34309 ft | 494 kts | 95° |
| 2026-05-07 10:48 | 56.26309 | 12.92113 | 34601 ft | 495 kts | 95° |
| 2026-05-07 10:49 | 56.25982 | 12.98288 | 34879 ft | 496 kts | 95° |
| 2026-05-07 10:49 | 56.25649 | 13.04508 | 35161 ft | 498 kts | 96° |
| 2026-05-07 10:49 | 56.25317 | 13.10659 | 35471 ft | 499 kts | 96° |
| 2026-05-07 10:49 | 56.24977 | 13.16888 | 35764 ft | 499 kts | 96° |
| 2026-05-07 10:50 | 56.24633 | 13.23145 | 36052 ft | 500 kts | 96° |
| 2026-05-07 10:50 | 56.24288 | 13.29366 | 36336 ft | 501 kts | 96° |
| 2026-05-07 10:50 | 56.23942 | 13.35531 | 36616 ft | 501 kts | 97° |
| 2026-05-07 10:50 | 56.23589 | 13.41777 | 36900 ft | 502 kts | 97° |
| 2026-05-07 10:51 | 56.23229 | 13.48082 | 37012 ft | 506 kts | 97° |
| 2026-05-07 10:51 | 56.22866 | 13.54379 | 37060 ft | 508 kts | 97° |
| 2026-05-07 10:51 | 56.22130 | 13.66984 | 37054 ft | 504 kts | 97° |
| 2026-05-07 10:52 | 56.21393 | 13.79419 | 37062 ft | 501 kts | 97° |
| 2026-05-07 10:52 | 56.20643 | 13.91825 | 37068 ft | 500 kts | 97° |
| 2026-05-07 10:53 | 56.19877 | 14.04293 | 37062 ft | 501 kts | 98° |
| 2026-05-07 10:53 | 56.19104 | 14.16695 | 37066 ft | 502 kts | 98° |
| 2026-05-07 10:54 | 56.18328 | 14.29163 | 37066 ft | 503 kts | 98° |
| 2026-05-07 10:54 | 56.17579 | 14.41658 | 37067 ft | 505 kts | 98° |
| 2026-05-07 10:55 | 56.16820 | 14.54239 | 37066 ft | 506 kts | 98° |
| 2026-05-07 10:55 | 56.16044 | 14.66794 | 37063 ft | 506 kts | 98° |
| 2026-05-07 10:56 | 56.15254 | 14.79310 | 37061 ft | 506 kts | 98° |
| 2026-05-07 10:56 | 56.14445 | 14.91897 | 37049 ft | 506 kts | 98° |
| 2026-05-07 10:57 | 56.13628 | 15.04425 | 37052 ft | 506 kts | 99° |
| 2026-05-07 10:57 | 56.12799 | 15.16922 | 37050 ft | 505 kts | 99° |
| 2026-05-07 10:58 | 56.11957 | 15.29429 | 37052 ft | 505 kts | 99° |
| 2026-05-07 10:58 | 56.11108 | 15.41859 | 37054 ft | 505 kts | 99° |
| 2026-05-07 10:59 | 56.10238 | 15.54384 | 37060 ft | 505 kts | 99° |
| 2026-05-07 10:59 | 56.09362 | 15.66829 | 37070 ft | 505 kts | 99° |
| 2026-05-07 11:00 | 56.08471 | 15.79288 | 37070 ft | 505 kts | 99° |
| 2026-05-07 11:00 | 56.07564 | 15.91798 | 37069 ft | 505 kts | 100° |
| 2026-05-07 11:01 | 56.06649 | 16.04244 | 37072 ft | 505 kts | 100° |
| 2026-05-07 11:01 | 56.05717 | 16.16732 | 37075 ft | 505 kts | 100° |
| 2026-05-07 11:02 | 56.04776 | 16.29173 | 37071 ft | 505 kts | 100° |
| 2026-05-07 11:02 | 56.03825 | 16.41570 | 37074 ft | 505 kts | 101° |
| 2026-05-07 11:03 | 56.02857 | 16.54018 | 37069 ft | 505 kts | 101° |
| 2026-05-07 11:03 | 56.01881 | 16.66418 | 37073 ft | 506 kts | 101° |
| 2026-05-07 11:04 | 56.00883 | 16.78912 | 37072 ft | 506 kts | 101° |
| 2026-05-07 11:04 | 55.99880 | 16.91323 | 37068 ft | 507 kts | 101° |
| 2026-05-07 11:05 | 55.98856 | 17.03823 | 37071 ft | 507 kts | 101° |
| 2026-05-07 11:05 | 55.97826 | 17.16234 | 37061 ft | 507 kts | 102° |
| 2026-05-07 11:06 | 55.96782 | 17.28663 | 37063 ft | 507 kts | 102° |
| 2026-05-07 11:06 | 55.95720 | 17.41153 | 37061 ft | 507 kts | 102° |
| 2026-05-07 11:07 | 55.94653 | 17.53548 | 37061 ft | 507 kts | 102° |
| 2026-05-07 11:07 | 55.93568 | 17.66020 | 37056 ft | 508 kts | 102° |
| 2026-05-07 11:08 | 55.92498 | 17.78432 | 37054 ft | 508 kts | 102° |
| 2026-05-07 11:08 | 55.91469 | 17.90879 | 37053 ft | 508 kts | 102° |
| 2026-05-07 11:09 | 55.90432 | 18.03340 | 37049 ft | 508 kts | 102° |
| 2026-05-07 11:09 | 55.89375 | 18.15786 | 37046 ft | 508 kts | 102° |
| 2026-05-07 11:10 | 55.88294 | 18.28297 | 37041 ft | 508 kts | 102° |
| 2026-05-07 11:10 | 55.87210 | 18.40698 | 37039 ft | 508 kts | 102° |
| 2026-05-07 11:11 | 55.86111 | 18.53125 | 37036 ft | 508 kts | 103° |
| 2026-05-07 11:11 | 55.85000 | 18.65539 | 37028 ft | 508 kts | 103° |
| 2026-05-07 11:12 | 55.83879 | 18.77917 | 37020 ft | 508 kts | 103° |
| 2026-05-07 11:12 | 55.82747 | 18.90288 | 37033 ft | 508 kts | 103° |
| 2026-05-07 11:13 | 55.81600 | 19.02690 | 37022 ft | 507 kts | 103° |
| 2026-05-07 11:13 | 55.79877 | 19.14720 | 37023 ft | 500 kts | 115° |
| 2026-05-07 11:14 | 55.77308 | 19.26254 | 37018 ft | 499 kts | 116° |
| 2026-05-07 11:14 | 55.74719 | 19.37669 | 37013 ft | 500 kts | 116° |
| 2026-05-07 11:15 | 55.72157 | 19.49073 | 37005 ft | 500 kts | 116° |
| 2026-05-07 11:15 | 55.69579 | 19.60601 | 37004 ft | 501 kts | 116° |
| 2026-05-07 11:16 | 55.67010 | 19.72048 | 37003 ft | 501 kts | 116° |
| 2026-05-07 11:16 | 55.64434 | 19.83459 | 37001 ft | 501 kts | 116° |
| 2026-05-07 11:17 | 55.61822 | 19.94959 | 36991 ft | 502 kts | 116° |
| 2026-05-07 11:17 | 55.59212 | 20.06385 | 36993 ft | 502 kts | 116° |
| 2026-05-07 11:18 | 55.56597 | 20.17773 | 36991 ft | 502 kts | 117° |
| 2026-05-07 11:18 | 55.54398 | 20.27301 | 36982 ft | 502 kts | 117° |
| 2026-05-07 11:19 | 55.51741 | 20.38756 | 36980 ft | 502 kts | 117° |
| 2026-05-07 11:19 | 55.49081 | 20.50168 | 36979 ft | 502 kts | 117° |
| 2026-05-07 11:20 | 55.46411 | 20.61556 | 36977 ft | 501 kts | 117° |
| 2026-05-07 11:20 | 55.43710 | 20.73019 | 36970 ft | 501 kts | 117° |
| 2026-05-07 11:21 | 55.41023 | 20.84362 | 36963 ft | 501 kts | 117° |
| 2026-05-07 11:21 | 55.38341 | 20.95623 | 36964 ft | 500 kts | 117° |
| 2026-05-07 11:22 | 55.35632 | 21.06940 | 36962 ft | 500 kts | 118° |
| 2026-05-07 11:22 | 55.32939 | 21.18130 | 36956 ft | 499 kts | 118° |
| 2026-05-07 11:23 | 55.30209 | 21.29416 | 36953 ft | 499 kts | 118° |
| 2026-05-07 11:23 | 55.27496 | 21.40571 | 36946 ft | 498 kts | 118° |
| 2026-05-07 11:24 | 55.24766 | 21.51744 | 36942 ft | 498 kts | 118° |
| 2026-05-07 11:24 | 55.22019 | 21.62926 | 36943 ft | 498 kts | 118° |
| 2026-05-07 11:25 | 55.19275 | 21.74041 | 36936 ft | 498 kts | 118° |
| 2026-05-07 11:25 | 55.16513 | 21.85171 | 36935 ft | 498 kts | 118° |
| 2026-05-07 11:26 | 55.13751 | 21.96244 | 36936 ft | 498 kts | 118° |
| 2026-05-07 11:26 | 55.10964 | 22.07362 | 36928 ft | 498 kts | 119° |
| 2026-05-07 11:27 | 55.08185 | 22.18394 | 36926 ft | 498 kts | 119° |
| 2026-05-07 11:27 | 55.05396 | 22.29413 | 36926 ft | 498 kts | 119° |
| 2026-05-07 11:28 | 55.02576 | 22.40498 | 36931 ft | 498 kts | 119° |
| 2026-05-07 11:28 | 54.99784 | 22.51420 | 36924 ft | 497 kts | 119° |
| 2026-05-07 11:29 | 54.96932 | 22.62531 | 36926 ft | 497 kts | 119° |
| 2026-05-07 11:29 | 54.94143 | 22.73473 | 36929 ft | 498 kts | 117° |
| 2026-05-07 11:30 | 54.91930 | 22.84974 | 36938 ft | 501 kts | 112° |
| 2026-05-07 11:30 | 54.89893 | 22.96510 | 36918 ft | 501 kts | 111° |
| 2026-05-07 11:31 | 54.87828 | 23.08037 | 36928 ft | 502 kts | 112° |
| 2026-05-07 11:31 | 54.85705 | 23.19654 | 36915 ft | 502 kts | 112° |
| 2026-05-07 11:32 | 54.82516 | 23.36878 | 36912 ft | 500 kts | 112° |
| 2026-05-07 11:33 | 54.80383 | 23.48316 | 36908 ft | 499 kts | 112° |
| 2026-05-07 11:33 | 54.78222 | 23.59833 | 36909 ft | 499 kts | 112° |
| 2026-05-07 11:34 | 54.76073 | 23.71226 | 36906 ft | 498 kts | 112° |
| 2026-05-07 11:34 | 54.73918 | 23.82574 | 36904 ft | 498 kts | 112° |
| 2026-05-07 11:35 | 54.71733 | 23.94017 | 36924 ft | 499 kts | 112° |
| 2026-05-07 11:35 | 54.69534 | 24.05460 | 36890 ft | 501 kts | 112° |
| 2026-05-07 11:36 | 54.67335 | 24.16843 | 36903 ft | 501 kts | 113° |
| 2026-05-07 11:36 | 54.65117 | 24.28253 | 36870 ft | 502 kts | 113° |
| 2026-05-07 11:37 | 54.62879 | 24.39702 | 36875 ft | 501 kts | 113° |
| 2026-05-07 11:37 | 54.60644 | 24.51065 | 36872 ft | 499 kts | 113° |
| 2026-05-07 11:38 | 54.58407 | 24.62372 | 36867 ft | 498 kts | 113° |
| 2026-05-07 11:38 | 54.56159 | 24.73665 | 36870 ft | 497 kts | 113° |
| 2026-05-07 11:39 | 54.53915 | 24.84882 | 36634 ft | 491 kts | 113° |
| 2026-05-07 11:39 | 54.52807 | 24.90397 | 36149 ft | 494 kts | 113° |
| 2026-05-07 11:39 | 54.51674 | 24.96013 | 35520 ft | 495 kts | 114° |
| 2026-05-07 11:39 | 54.50539 | 25.01628 | 34980 ft | 492 kts | 114° |
| 2026-05-07 11:40 | 54.49408 | 25.07211 | 34461 ft | 488 kts | 114° |
| 2026-05-07 11:40 | 54.48290 | 25.12718 | 33956 ft | 485 kts | 114° |
| 2026-05-07 11:40 | 54.47190 | 25.18116 | 33391 ft | 482 kts | 114° |
| 2026-05-07 11:40 | 54.46078 | 25.23557 | 32818 ft | 478 kts | 114° |
| 2026-05-07 11:41 | 54.44973 | 25.28944 | 32252 ft | 475 kts | 114° |
| 2026-05-07 11:41 | 54.43885 | 25.34239 | 31718 ft | 472 kts | 114° |
| 2026-05-07 11:41 | 54.42793 | 25.39538 | 31171 ft | 469 kts | 114° |
| 2026-05-07 11:41 | 54.41713 | 25.44767 | 30653 ft | 466 kts | 114° |
| 2026-05-07 11:42 | 54.40625 | 25.50021 | 30115 ft | 463 kts | 114° |
| 2026-05-07 11:42 | 54.39557 | 25.55168 | 29559 ft | 460 kts | 114° |
| 2026-05-07 11:42 | 54.38488 | 25.60325 | 28956 ft | 457 kts | 114° |
| 2026-05-07 11:42 | 54.37468 | 25.65488 | 28384 ft | 454 kts | 113° |
| 2026-05-07 11:43 | 54.36490 | 25.70591 | 27819 ft | 451 kts | 112° |
| 2026-05-07 11:43 | 54.35513 | 25.75699 | 27269 ft | 448 kts | 113° |
| 2026-05-07 11:43 | 54.34534 | 25.80768 | 26718 ft | 444 kts | 113° |
| 2026-05-07 11:43 | 54.33554 | 25.85788 | 26189 ft | 441 kts | 113° |
| 2026-05-07 11:44 | 54.32588 | 25.90708 | 25671 ft | 439 kts | 113° |
| 2026-05-07 11:44 | 54.31608 | 25.95650 | 25165 ft | 436 kts | 113° |
| 2026-05-07 11:44 | 54.30630 | 26.00561 | 24646 ft | 433 kts | 113° |
| 2026-05-07 11:44 | 54.29654 | 26.05453 | 24149 ft | 431 kts | 113° |
| 2026-05-07 11:45 | 54.28684 | 26.10298 | 23657 ft | 428 kts | 113° |
| 2026-05-07 11:45 | 54.27729 | 26.15069 | 23135 ft | 426 kts | 113° |
| 2026-05-07 11:45 | 54.26769 | 26.19850 | 22561 ft | 423 kts | 113° |
| 2026-05-07 11:45 | 54.25810 | 26.24615 | 22004 ft | 421 kts | 113° |
| 2026-05-07 11:46 | 54.24858 | 26.29337 | 21449 ft | 419 kts | 113° |
| 2026-05-07 11:46 | 54.23918 | 26.33988 | 20920 ft | 416 kts | 113° |
| 2026-05-07 11:46 | 54.22967 | 26.38677 | 20382 ft | 414 kts | 113° |
| 2026-05-07 11:46 | 54.22033 | 26.43280 | 19878 ft | 412 kts | 114° |
| 2026-05-07 11:47 | 54.21091 | 26.47911 | 19359 ft | 410 kts | 114° |
| 2026-05-07 11:47 | 54.20151 | 26.52519 | 18861 ft | 408 kts | 114° |
| 2026-05-07 11:47 | 54.19215 | 26.57094 | 18355 ft | 406 kts | 114° |
| 2026-05-07 11:47 | 54.18291 | 26.61604 | 17840 ft | 404 kts | 114° |
| 2026-05-07 11:48 | 54.17359 | 26.66139 | 17271 ft | 402 kts | 114° |
| 2026-05-07 11:48 | 54.16431 | 26.70654 | 16737 ft | 400 kts | 114° |
| 2026-05-07 11:48 | 54.15520 | 26.75076 | 16200 ft | 398 kts | 114° |
| 2026-05-07 11:48 | 54.14594 | 26.79553 | 15668 ft | 397 kts | 114° |
| 2026-05-07 11:49 | 54.13679 | 26.83922 | 15162 ft | 394 kts | 115° |
| 2026-05-07 11:49 | 54.12653 | 26.88263 | 14651 ft | 391 kts | 117° |
| 2026-05-07 11:49 | 54.11574 | 26.92521 | 14146 ft | 388 kts | 118° |
| 2026-05-07 11:49 | 54.10500 | 26.96686 | 13655 ft | 387 kts | 118° |
| 2026-05-07 11:50 | 54.09422 | 27.00890 | 13104 ft | 385 kts | 118° |
| 2026-05-07 11:50 | 54.08357 | 27.05073 | 12557 ft | 383 kts | 118° |
| 2026-05-07 11:50 | 54.07313 | 27.09198 | 12023 ft | 381 kts | 117° |
| 2026-05-07 11:50 | 54.06269 | 27.13334 | 11493 ft | 379 kts | 117° |
| 2026-05-07 11:51 | 54.05232 | 27.17446 | 10990 ft | 377 kts | 117° |
| 2026-05-07 11:51 | 54.04197 | 27.21542 | 10457 ft | 375 kts | 117° |
| 2026-05-07 11:51 | 54.03513 | 27.24238 | 10131 ft | 373 kts | 117° |
| 2026-05-07 11:51 | 54.02518 | 27.28161 | 9646 ft | 370 kts | 117° |
| 2026-05-07 11:52 | 54.01830 | 27.32325 | 9056 ft | 370 kts | 97° |
| 2026-05-07 11:52 | 54.02096 | 27.36653 | 8510 ft | 375 kts | 75° |
| 2026-05-07 11:52 | 54.03206 | 27.40663 | 7985 ft | 375 kts | 54° |
| 2026-05-07 11:52 | 54.05098 | 27.43668 | 7453 ft | 371 kts | 27° |
| 2026-05-07 11:53 | 54.05877 | 27.44304 | 7287 ft | 369 kts | 18° |
| 2026-05-07 11:53 | 54.07955 | 27.44937 | 6879 ft | 360 kts | 354° |
| 2026-05-07 11:53 | 54.10292 | 27.43921 | 6361 ft | 346 kts | 326° |
| 2026-05-07 11:54 | 54.12043 | 27.41315 | 6015 ft | 325 kts | 304° |
| 2026-05-07 11:54 | 54.13507 | 27.38554 | 5992 ft | 305 kts | 312° |
| 2026-05-07 11:54 | 54.15200 | 27.36467 | 5893 ft | 306 kts | 333° |
| 2026-05-07 11:54 | 54.17324 | 27.35827 | 5604 ft | 316 kts | 359° |
| 2026-05-07 11:55 | 54.19465 | 27.36730 | 5319 ft | 319 kts | 22° |
| 2026-05-07 11:55 | 54.21224 | 27.38864 | 5128 ft | 310 kts | 45° |
| 2026-05-07 11:55 | 54.22639 | 27.41628 | 4847 ft | 307 kts | 50° |
| 2026-05-07 11:55 | 54.23776 | 27.44647 | 4495 ft | 302 kts | 72° |
| 2026-05-07 11:56 | 54.24043 | 27.48117 | 4177 ft | 294 kts | 99° |
| 2026-05-07 11:56 | 54.23495 | 27.51422 | 3850 ft | 285 kts | 121° |
| 2026-05-07 11:56 | 54.22401 | 27.54140 | 3523 ft | 274 kts | 141° |
| 2026-05-07 11:56 | 54.20996 | 27.56270 | 3223 ft | 268 kts | 145° |
| 2026-05-07 11:57 | 54.19601 | 27.58277 | 3012 ft | 254 kts | 144° |
| 2026-05-07 11:57 | 54.18315 | 27.60143 | 2981 ft | 229 kts | 143° |
| 2026-05-07 11:57 | 54.17179 | 27.61843 | 2976 ft | 204 kts | 146° |
| 2026-05-07 11:57 | 54.16170 | 27.63323 | 2999 ft | 196 kts | 146° |
| 2026-05-07 11:58 | 54.15176 | 27.64739 | 3011 ft | 180 kts | 145° |
| 2026-05-07 11:58 | 54.14281 | 27.66070 | 2996 ft | 163 kts | 146° |
| 2026-05-07 11:58 | 54.13460 | 27.67288 | 2987 ft | 149 kts | 147° |
| 2026-05-07 11:58 | 54.12681 | 27.68441 | 3015 ft | 149 kts | 147° |
| 2026-05-07 11:59 | 54.11866 | 27.69634 | 3016 ft | 156 kts | 147° |
| 2026-05-07 11:59 | 54.11041 | 27.70822 | 2978 ft | 152 kts | 148° |
| 2026-05-07 11:59 | 54.10261 | 27.72037 | 3006 ft | 153 kts | 142° |
| 2026-05-07 11:59 | 54.09528 | 27.73394 | 3038 ft | 160 kts | 140° |
| 2026-05-07 12:00 | 54.08792 | 27.74816 | 3034 ft | 158 kts | 139° |
| 2026-05-07 12:00 | 54.08061 | 27.76226 | 3004 ft | 157 kts | 140° |
| 2026-05-07 12:00 | 54.07323 | 27.77552 | 3021 ft | 158 kts | 138° |
| 2026-05-07 12:00 | 54.06599 | 27.79011 | 3025 ft | 164 kts | 138° |
| 2026-05-07 12:01 | 54.05828 | 27.80372 | 2929 ft | 152 kts | 143° |
| 2026-05-07 12:01 | 54.05030 | 27.81606 | 2981 ft | 157 kts | 145° |
| 2026-05-07 12:01 | 54.04221 | 27.82851 | 3001 ft | 160 kts | 144° |
| 2026-05-07 12:01 | 54.03410 | 27.84095 | 3031 ft | 155 kts | 149° |
| 2026-05-07 12:02 | 54.02585 | 27.85285 | 2983 ft | 155 kts | 146° |
| 2026-05-07 12:02 | 54.01783 | 27.86521 | 3011 ft | 157 kts | 144° |
| 2026-05-07 12:02 | 54.00973 | 27.87754 | 3012 ft | 155 kts | 146° |
| 2026-05-07 12:02 | 54.00160 | 27.88973 | 3020 ft | 156 kts | 145° |
| 2026-05-07 12:03 | 53.99341 | 27.90200 | 2916 ft | 159 kts | 145° |
| 2026-05-07 12:03 | 53.98522 | 27.91423 | 2721 ft | 153 kts | 146° |
| 2026-05-07 12:03 | 53.97724 | 27.92614 | 2506 ft | 155 kts | 147° |
| 2026-05-07 12:03 | 53.96911 | 27.93823 | 2317 ft | 155 kts | 146° |
| 2026-05-07 12:04 | 53.96108 | 27.95027 | 2120 ft | 155 kts | 146° |
| 2026-05-07 12:04 | 53.95299 | 27.96228 | 1927 ft | 153 kts | 146° |
| 2026-05-07 12:04 | 53.94483 | 27.97438 | 1711 ft | 156 kts | 145° |
| 2026-05-07 12:04 | 53.93688 | 27.98634 | 1505 ft | 149 kts | 146° |
| 2026-05-07 12:05 | 53.92911 | 27.99788 | 1286 ft | 149 kts | 146° |
| 2026-05-07 12:05 | 53.92125 | 28.00960 | 1146 ft | 150 kts | 142° |
| 2026-05-07 12:05 | 53.91311 | 28.02106 | 986 ft | 157 kts | 145° |
| 2026-05-07 12:05 | 53.90510 | 28.03328 | 694 ft | 148 kts | 142° |
| 2026-05-07 12:06 | 53.89773 | 28.04409 | 642 ft | 131 kts | 141° |
| 2026-05-07 12:06 | 53.89213 | 28.05266 | 647 ft | 79 kts | 138° |
| 2026-05-07 12:06 | 53.88902 | 28.05717 | 638 ft | 35 kts | 149° |
| 2026-05-07 12:06 | 53.88701 | 28.05837 | 645 ft | 13 kts | 166° |
| 2026-05-07 12:07 | 53.88636 | 28.05778 | 643 ft | 11 kts | 256° |
| 2026-05-07 12:07 | 53.88672 | 28.05671 | 644 ft | 11 kts | 319° |
| 2026-05-07 12:07 | 53.88730 | 28.05584 | 644 ft | 12 kts | 319° |
| 2026-05-07 12:07 | 53.88809 | 28.05465 | 647 ft | 20 kts | 319° |
| 2026-05-07 12:08 | 53.88937 | 28.05274 | 644 ft | 28 kts | 318° |
| 2026-05-07 12:08 | 53.89102 | 28.05029 | 648 ft | 35 kts | 319° |
| 2026-05-07 12:08 | 53.89178 | 28.04914 | 645 ft | 3 kts | 307° |
| 2026-05-07 12:08 | 53.89178 | 28.04832 | 646 ft | 10 kts | 243° |
| 2026-05-07 12:09 | 53.89187 | 28.04719 | 646 ft | 13 kts | 297° |
| 2026-05-07 12:09 | 53.89151 | 28.04549 | 646 ft | 20 kts | 231° |
| 2026-05-07 12:09 | 53.89042 | 28.04333 | 648 ft | 28 kts | 230° |
| 2026-05-07 12:09 | 53.88897 | 28.04057 | 647 ft | 32 kts | 226° |
| 2026-05-07 12:10 | 53.88883 | 28.03906 | 645 ft | 11 kts | 306° |
| 2026-05-07 12:10 | 53.88922 | 28.03747 | 645 ft | 18 kts | 258° |
| 2026-05-07 12:10 | 53.88835 | 28.03590 | 642 ft | 21 kts | 226° |
| 2026-05-07 12:10 | 53.88788 | 28.03336 | 643 ft | 24 kts | 269° |
| 2026-05-07 12:11 | 53.88809 | 28.03224 | 645 ft | 8 kts | 335° |
| 2026-05-07 12:11 | 53.88830 | 28.03224 | 642 ft | 4 kts | 10° |
| 2026-05-07 12:11 | 53.88843 | 28.03228 | 641 ft | 0 kts | 11° |